Time;durP1;ratioP1;P1;durP2;ratioP2;P2;SDS_P1;SDS_P2;PMS_P1;PMS_P2;Temp;Humidity;BMP_temperature;BMP_pressure;BME280_temperature;BME280_humidity;BME280_pressure;Samples;Min_cycle;Max_cycle;Signal;HPM_P1;HPM_P2
2021/12/24 00:00:59;;;;;;;3.40;3.20;;;8.70;98.20;;;;;;4979390;28;20488;-69
2021/12/24 00:03:27;;;;;;;2.27;2.07;;;8.70;98.20;;;;;;4999664;28;20516;-71
2021/12/24 00:05:55;;;;;;;1.70;1.47;;;8.70;98.20;;;;;;4978723;28;20465;-71
2021/12/24 00:08:22;;;;;;;1.60;1.20;;;8.70;98.20;;;;;;5001872;28;20460;-71
2021/12/24 00:10:57;;;;;;;2.27;2.07;;;8.70;98.20;;;;;;4977200;28;21075;-71
2021/12/24 00:13:25;;;;;;;1.67;1.30;;;8.70;98.20;;;;;;4999811;28;21128;-71
2021/12/24 00:15:58;;;;;;;1.60;1.20;;;8.70;98.20;;;;;;4979669;28;20485;-71
2021/12/24 00:18:39;;;;;;;1.60;1.20;;;8.70;98.20;;;;;;5000734;28;20572;-71
2021/12/24 00:37:35;;;;;;;1.60;1.20;;;8.60;98.20;;;;;;4987134;28;20487;-73
2021/12/24 00:40:11;;;;;;;1.60;1.20;;;8.60;98.20;;;;;;4989876;28;20519;-72
2021/12/24 00:42:38;;;;;;;1.70;1.30;;;8.60;98.20;;;;;;4986239;28;20479;-72
2021/12/24 00:45:06;;;;;;;1.60;1.10;;;8.60;98.20;;;;;;4989270;28;20465;-73
2021/12/24 00:47:32;;;;;;;1.63;1.20;;;8.60;98.20;;;;;;4989301;28;20475;-72
2021/12/24 00:50:05;;;;;;;1.60;1.20;;;8.60;98.20;;;;;;4988100;28;20473;-70
2021/12/24 00:52:46;;;;;;;1.63;1.20;;;8.60;98.20;;;;;;4985061;28;20468;-71
2021/12/24 00:55:13;;;;;;;1.70;1.30;;;8.60;98.20;;;;;;4988158;28;20461;-70
2021/12/24 00:57:43;;;;;;;1.67;1.27;;;8.60;98.20;;;;;;4991423;28;20472;-71
2021/12/24 01:00:14;;;;;;;2.30;1.63;;;8.50;98.20;;;;;;4988711;28;20552;-71
2021/12/24 01:02:42;;;;;;;1.60;1.10;;;8.60;98.20;;;;;;4992383;28;20762;-71
2021/12/24 01:05:10;;;;;;;1.67;1.30;;;8.60;98.20;;;;;;4988410;28;20551;-72
2021/12/24 01:07:38;;;;;;;1.67;1.20;;;8.60;98.20;;;;;;4992562;28;20542;-71
2021/12/24 01:10:07;;;;;;;3.43;3.23;;;8.60;98.20;;;;;;4988832;28;20458;-72
2021/12/24 01:12:36;;;;;;;2.67;2.47;;;8.60;98.20;;;;;;4989610;28;20567;-72
2021/12/24 01:15:05;;;;;;;1.63;1.20;;;8.60;98.20;;;;;;4990985;28;20468;-71
2021/12/24 01:17:38;;;;;;;1.60;1.20;;;8.60;98.20;;;;;;4990484;28;20582;-71
2021/12/24 01:20:15;;;;;;;1.63;1.20;;;8.60;98.20;;;;;;4987815;28;20473;-71
2021/12/24 01:25:30;;;;;;;1.60;1.20;;;8.60;98.20;;;;;;4987553;28;20619;-72
2021/12/24 01:28:23;;;;;;;1.60;1.17;;;8.60;98.20;;;;;;4993227;28;20519;-72
2021/12/24 01:39:08;;;;;;;1.60;1.10;;;8.60;98.20;;;;;;4995913;28;20440;-71
2021/12/24 01:44:26;;;;;;;1.63;1.20;;;8.60;98.20;;;;;;4992689;28;20440;-72
2021/12/24 01:46:55;;;;;;;1.60;1.10;;;8.60;98.20;;;;;;4985945;28;20486;-72
2021/12/24 01:49:22;;;;;;;1.60;1.20;;;8.60;98.20;;;;;;4992208;28;20516;-72
2021/12/24 01:51:48;;;;;;;1.67;1.30;;;8.60;98.20;;;;;;4984924;28;20996;-71
2021/12/24 01:54:16;;;;;;;1.60;1.10;;;8.70;98.20;;;;;;4993379;28;20890;-72
2021/12/24 01:56:44;;;;;;;1.70;1.40;;;8.70;98.20;;;;;;4985030;28;20480;-72
2021/12/24 01:59:11;;;;;;;1.60;1.20;;;8.70;98.20;;;;;;4996367;28;20456;-72
2021/12/24 02:01:39;;;;;;;1.70;1.30;;;8.70;98.20;;;;;;4985406;28;20730;-72
2021/12/24 02:04:07;;;;;;;1.60;1.20;;;8.80;98.20;;;;;;4999318;28;20465;-72
2021/12/24 02:06:34;;;;;;;1.67;1.30;;;8.80;98.20;;;;;;4985577;28;20510;-72
2021/12/24 02:09:01;;;;;;;1.60;1.20;;;8.80;98.20;;;;;;4999615;28;20461;-72
2021/12/24 02:11:29;;;;;;;1.60;1.10;;;8.80;98.20;;;;;;4984831;28;21031;-71
2021/12/24 02:13:56;;;;;;;1.70;1.30;;;8.80;98.20;;;;;;5000754;28;20488;-71
2021/12/24 02:16:39;;;;;;;1.70;1.20;;;8.80;98.20;;;;;;4985656;28;20558;-72
2021/12/24 02:30:08;;;;;;;1.60;1.20;;;8.90;98.20;;;;;;4991813;28;20464;-72
2021/12/24 02:32:35;;;;;;;1.60;1.30;;;8.90;98.20;;;;;;4992101;28;20504;-72
2021/12/24 02:35:02;;;;;;;1.60;1.20;;;8.90;98.20;;;;;;4992074;28;20944;-72
2021/12/24 02:37:30;;;;;;;1.60;1.20;;;8.90;98.20;;;;;;4990401;28;20475;-73
2021/12/24 02:39:57;;;;;;;1.60;1.20;;;8.90;98.20;;;;;;4991058;28;20919;-72
2021/12/24 02:42:25;;;;;;;1.60;1.20;;;8.90;98.20;;;;;;4989990;28;21311;-72
2021/12/24 02:44:53;;;;;;;1.70;1.30;;;8.90;98.20;;;;;;4991288;28;20540;-72
2021/12/24 02:47:54;;;;;;;1.60;1.20;;;8.90;98.20;;;;;;4991343;28;20562;-72
2021/12/24 02:55:56;;;;;;;1.70;1.30;;;8.90;98.20;;;;;;4977175;28;20460;-72
2021/12/24 02:58:23;;;;;;;1.60;1.20;;;9.00;98.20;;;;;;4995540;28;20953;-73
2021/12/24 03:00:50;;;;;;;1.60;1.20;;;9.00;98.20;;;;;;4980009;28;20765;-73
2021/12/24 03:03:17;;;;;;;1.60;1.20;;;9.00;98.20;;;;;;5003367;28;20495;-72
2021/12/24 03:05:43;;;;;;;1.60;1.20;;;9.00;98.20;;;;;;4989997;28;20468;-72
2021/12/24 03:08:12;;;;;;;1.60;1.20;;;9.00;98.20;;;;;;4979383;28;20965;-73
2021/12/24 03:10:39;;;;;;;1.60;1.20;;;9.00;98.20;;;;;;4989074;28;20887;-72
2021/12/24 03:13:06;;;;;;;1.60;1.20;;;9.00;98.20;;;;;;4994324;28;21018;-72
2021/12/24 03:15:33;;;;;;;1.80;1.50;;;9.00;98.20;;;;;;4988843;28;21058;-73
2021/12/24 03:18:00;;;;;;;1.67;1.20;;;9.00;98.20;;;;;;4996034;28;20496;-73
2021/12/24 03:20:33;;;;;;;1.60;1.10;;;9.00;98.20;;;;;;4989100;28;20514;-70
2021/12/24 03:23:10;;;;;;;1.60;1.20;;;9.00;98.20;;;;;;4994199;28;20484;-70
2021/12/24 03:25:39;;;;;;;1.60;1.20;;;9.00;98.20;;;;;;4989423;28;20460;-70
2021/12/24 03:28:06;;;;;;;1.60;1.20;;;9.00;98.20;;;;;;4994788;28;20510;-73
2021/12/24 03:30:34;;;;;;;1.60;1.20;;;9.00;98.20;;;;;;4990235;28;20492;-73
2021/12/24 03:33:01;;;;;;;1.60;1.10;;;9.00;98.20;;;;;;4993345;28;20476;-73
2021/12/24 03:35:27;;;;;;;1.60;1.20;;;9.00;98.20;;;;;;4988747;28;20826;-73
2021/12/24 03:37:54;;;;;;;2.23;2.03;;;9.00;98.20;;;;;;4994105;28;20480;-73
2021/12/24 03:40:21;;;;;;;1.60;1.20;;;9.00;98.20;;;;;;4989725;28;20559;-73
2021/12/24 03:42:50;;;;;;;1.63;1.13;;;9.00;98.20;;;;;;4991267;28;20532;-73
2021/12/24 03:45:26;;;;;;;1.60;1.20;;;9.00;98.20;;;;;;4987888;28;20461;-71
2021/12/24 03:47:57;;;;;;;2.33;2.13;;;9.00;98.20;;;;;;4995109;28;20587;-71
2021/12/24 03:50:38;;;;;;;1.63;1.20;;;9.00;98.20;;;;;;4984310;28;22083;-71
2021/12/24 03:54:55;;;;;;;1.70;1.40;;;9.00;98.20;;;;;;4991262;28;20542;-71
2021/12/24 03:55:51;;;;;;;1.67;1.20;;;9.00;98.20;;;;;;4978600;28;20942;-72
2021/12/24 03:58:19;;;;;;;1.63;1.20;;;9.00;98.20;;;;;;4999710;28;20461;-71
2021/12/24 04:00:46;;;;;;;1.63;1.20;;;9.00;98.20;;;;;;4986233;28;20226;-71
2021/12/24 04:03:13;;;;;;;1.67;1.30;;;9.00;98.20;;;;;;5002176;28;20588;-71
2021/12/24 04:05:40;;;;;;;1.63;1.27;;;9.00;98.20;;;;;;4988953;28;20465;-71
2021/12/24 04:08:07;;;;;;;1.70;1.30;;;9.00;98.20;;;;;;4990435;28;20488;-71
2021/12/24 04:10:39;;;;;;;1.60;1.20;;;9.00;98.20;;;;;;4987043;28;21113;-71
2021/12/24 04:13:07;;;;;;;1.60;1.20;;;9.00;98.20;;;;;;4994167;28;20567;-71
2021/12/24 04:15:35;;;;;;;1.70;1.30;;;9.00;98.20;;;;;;4990878;28;21116;-71
2021/12/24 04:18:02;;;;;;;1.70;1.30;;;9.00;98.20;;;;;;4993700;28;20482;-71
2021/12/24 04:25:58;;;;;;;1.60;1.20;;;9.00;98.20;;;;;;4975769;28;20444;-71
2021/12/24 04:28:25;;;;;;;1.60;1.20;;;9.00;98.20;;;;;;4997895;28;20469;-71
2021/12/24 04:30:53;;;;;;;1.60;1.20;;;9.00;98.20;;;;;;4979337;28;20539;-73
2021/12/24 04:33:26;;;;;;;1.60;1.20;;;9.00;98.20;;;;;;4995487;28;20564;-73
2021/12/24 04:36:00;;;;;;;1.60;1.20;;;9.00;98.20;;;;;;4978514;28;20548;-73
2021/12/24 04:38:56;;;;;;;1.67;1.30;;;9.00;98.20;;;;;;4997608;28;20993;-73
2021/12/24 04:52:43;;;;;;;1.60;1.20;;;9.10;98.20;;;;;;4987950;28;20522;-72
2021/12/24 05:03:30;;;;;;;1.67;1.20;;;9.10;98.20;;;;;;4976448;28;20487;-72
2021/12/24 05:06:08;;;;;;;1.60;1.20;;;9.10;98.20;;;;;;4978182;28;20464;-71
2021/12/24 05:08:42;;;;;;;1.60;1.10;;;9.10;98.20;;;;;;4999306;28;20471;-70
2021/12/24 05:11:13;;;;;;;1.60;1.20;;;9.10;98.20;;;;;;4977075;28;20482;-72
2021/12/24 05:13:40;;;;;;;1.60;1.10;;;9.10;98.20;;;;;;4999324;28;20467;-70
2021/12/24 05:16:18;;;;;;;1.60;1.20;;;9.10;98.20;;;;;;4979325;28;20485;-73
2021/12/24 05:19:06;;;;;;;1.60;1.20;;;9.10;98.20;;;;;;4998387;28;20842;-71
2021/12/24 05:21:36;;;;;;;1.70;1.30;;;9.10;98.20;;;;;;4979011;28;20507;-72
2021/12/24 05:24:05;;;;;;;1.90;1.63;;;9.10;98.20;;;;;;4995474;28;20579;-71
2021/12/24 05:26:33;;;;;;;1.70;1.30;;;9.10;98.20;;;;;;4979258;28;20512;-71
2021/12/24 05:29:01;;;;;;;1.60;1.20;;;9.10;98.20;;;;;;4996261;28;20632;-71
2021/12/24 05:31:30;;;;;;;1.60;1.20;;;9.20;98.20;;;;;;4981865;28;20481;-71
2021/12/24 05:33:58;;;;;;;1.70;1.30;;;9.10;98.20;;;;;;4996591;28;20840;-72
2021/12/24 05:36:25;;;;;;;1.60;1.20;;;9.20;98.20;;;;;;4982855;28;20547;-71
2021/12/24 05:38:52;;;;;;;1.60;1.20;;;9.10;98.20;;;;;;4997402;28;20468;-72
2021/12/24 05:41:21;;;;;;;1.70;1.40;;;9.10;98.20;;;;;;4982138;28;20486;-71
2021/12/24 05:43:48;;;;;;;1.60;1.20;;;9.10;98.20;;;;;;4998275;28;20492;-71
2021/12/24 05:46:15;;;;;;;1.60;1.20;;;9.10;98.20;;;;;;4981534;28;20566;-72
2021/12/24 05:48:42;;;;;;;1.70;1.30;;;9.10;98.20;;;;;;4999300;28;20549;-71
2021/12/24 05:51:10;;;;;;;1.60;1.20;;;9.10;98.20;;;;;;4978758;28;20872;-71
2021/12/24 05:53:37;;;;;;;1.70;1.33;;;9.10;98.20;;;;;;4999121;28;20831;-71
2021/12/24 05:56:05;;;;;;;1.60;1.20;;;9.10;98.20;;;;;;4978155;28;21089;-72
2021/12/24 05:58:31;;;;;;;1.70;1.20;;;9.10;98.20;;;;;;5000570;28;20660;-71
2021/12/24 06:00:58;;;;;;;1.67;1.30;;;9.10;98.20;;;;;;4978334;28;20806;-71
2021/12/24 06:03:25;;;;;;;1.60;1.20;;;9.10;98.20;;;;;;4999723;28;20595;-72
2021/12/24 06:05:52;;;;;;;1.60;1.20;;;9.10;98.20;;;;;;4977121;28;20465;-72
2021/12/24 06:08:20;;;;;;;1.60;1.20;;;9.10;98.20;;;;;;4999891;28;20968;-72
2021/12/24 06:10:47;;;;;;;1.60;1.20;;;9.10;98.20;;;;;;4976451;28;21069;-72
2021/12/24 06:13:14;;;;;;;1.60;1.20;;;9.10;98.20;;;;;;4993767;28;20469;-72
2021/12/24 06:15:46;;;;;;;1.80;1.40;;;9.10;98.20;;;;;;4986450;28;21009;-71
2021/12/24 06:18:21;;;;;;;1.60;1.20;;;9.20;98.20;;;;;;4975611;28;20901;-71
2021/12/24 06:20:48;;;;;;;1.60;1.20;;;9.20;98.20;;;;;;4976830;28;20492;-71
2021/12/24 06:23:17;;;;;;;1.60;1.10;;;9.20;98.20;;;;;;4999253;28;20551;-71
2021/12/24 06:25:46;;;;;;;1.67;1.20;;;9.20;98.20;;;;;;4986595;28;20811;-71
2021/12/24 06:28:12;;;;;;;1.60;1.20;;;9.20;98.20;;;;;;4975417;28;21053;-71
2021/12/24 06:30:41;;;;;;;1.60;1.20;;;9.20;98.20;;;;;;4987098;28;20513;-72
2021/12/24 06:33:08;;;;;;;1.60;1.30;;;9.20;98.20;;;;;;4991409;28;20488;-71
2021/12/24 06:35:36;;;;;;;1.60;1.20;;;9.20;98.20;;;;;;4988846;28;20552;-71
2021/12/24 06:38:04;;;;;;;1.60;1.10;;;9.20;98.20;;;;;;4992135;28;20563;-73
2021/12/24 06:40:31;;;;;;;1.67;1.30;;;9.20;98.20;;;;;;4987903;28;20480;-72
2021/12/24 06:42:59;;;;;;;1.63;1.20;;;9.20;98.20;;;;;;4989232;28;20488;-72
2021/12/24 06:45:27;;;;;;;1.70;1.40;;;9.20;98.20;;;;;;4986034;28;20577;-72
2021/12/24 06:47:56;;;;;;;1.93;1.63;;;9.20;98.20;;;;;;4988208;28;20475;-72
2021/12/24 06:50:25;;;;;;;1.60;1.20;;;9.20;98.20;;;;;;4989212;28;20491;-72
2021/12/24 06:52:52;;;;;;;1.60;1.20;;;9.20;98.20;;;;;;4987815;28;20542;-72
2021/12/24 06:55:19;;;;;;;1.60;1.20;;;9.20;98.20;;;;;;4989885;28;20465;-72
2021/12/24 06:57:47;;;;;;;1.60;1.20;;;9.20;98.20;;;;;;4992765;28;20492;-72
2021/12/24 07:00:18;;;;;;;1.80;1.20;;;9.10;98.20;;;;;;4986928;28;20960;-72
2021/12/24 07:02:45;;;;;;;1.60;1.20;;;9.10;98.20;;;;;;4994208;28;20483;-72
2021/12/24 07:05:12;;;;;;;1.60;1.20;;;9.10;98.20;;;;;;4990058;28;20547;-72
2021/12/24 07:07:39;;;;;;;1.63;1.20;;;9.10;98.20;;;;;;4993664;28;20494;-72
2021/12/24 07:10:07;;;;;;;1.60;1.10;;;9.10;98.20;;;;;;4990791;28;20845;-72
2021/12/24 07:12:34;;;;;;;2.17;1.97;;;9.10;98.20;;;;;;4990090;28;21146;-72
2021/12/24 07:15:01;;;;;;;1.70;1.37;;;9.10;98.20;;;;;;4991305;28;20460;-72
2021/12/24 07:17:29;;;;;;;1.60;1.20;;;9.10;98.20;;;;;;4991401;28;20502;-72
2021/12/24 07:19:56;;;;;;;1.60;1.10;;;9.10;98.20;;;;;;4991548;28;21009;-72
2021/12/24 07:22:23;;;;;;;1.60;1.30;;;9.10;98.20;;;;;;4983065;28;20542;-72
2021/12/24 07:24:50;;;;;;;1.63;1.20;;;9.10;98.20;;;;;;4991621;28;20516;-72
2021/12/24 07:27:17;;;;;;;1.60;1.10;;;9.10;98.20;;;;;;4991917;28;20486;-72
2021/12/24 07:29:44;;;;;;;1.60;1.20;;;9.10;98.20;;;;;;4995274;28;20484;-72
2021/12/24 07:32:11;;;;;;;1.70;1.40;;;9.10;98.20;;;;;;4988852;28;21046;-72
2021/12/24 07:34:39;;;;;;;1.60;1.10;;;9.10;98.20;;;;;;4993486;28;21113;-72
2021/12/24 07:37:06;;;;;;;1.60;1.20;;;9.10;98.20;;;;;;4991132;28;21243;-73
2021/12/24 07:39:33;;;;;;;1.67;1.30;;;9.10;98.20;;;;;;4994093;28;20461;-72
2021/12/24 07:42:00;;;;;;;1.60;1.20;;;9.10;98.20;;;;;;4981176;28;20524;-72
2021/12/24 07:44:29;;;;;;;1.60;1.20;;;9.10;98.20;;;;;;4992349;28;20489;-72
2021/12/24 07:47:00;;;;;;;1.70;1.30;;;9.10;98.20;;;;;;4963127;28;20490;-73
2021/12/24 07:49:39;;;;;;;1.67;1.30;;;9.10;98.20;;;;;;4968665;28;20972;-72
2021/12/24 07:52:12;;;;;;;1.60;1.20;;;9.10;98.20;;;;;;4960983;28;20497;-73
2021/12/24 07:54:40;;;;;;;1.60;1.20;;;9.10;98.20;;;;;;4970206;28;20483;-72
2021/12/24 07:57:09;;;;;;;1.60;1.20;;;9.10;98.20;;;;;;4971148;28;21162;-72
2021/12/24 07:59:37;;;;;;;1.60;1.10;;;9.10;98.20;;;;;;4992893;28;20476;-72
2021/12/24 08:02:09;;;;;;;1.67;1.20;;;9.10;98.20;;;;;;4984033;28;20587;-72
2021/12/24 08:04:37;;;;;;;1.60;1.20;;;9.10;98.20;;;;;;4988505;28;20595;-72
2021/12/24 08:07:04;;;;;;;1.60;1.17;;;9.10;98.20;;;;;;4986840;28;20667;-72
2021/12/24 08:09:33;;;;;;;4.03;2.80;;;9.10;98.20;;;;;;4992264;28;20556;-72
2021/12/24 08:12:00;;;;;;;1.60;1.20;;;9.10;98.20;;;;;;4981829;28;20491;-72
2021/12/24 08:14:27;;;;;;;1.63;1.20;;;9.10;98.20;;;;;;4991592;28;20575;-72
2021/12/24 08:16:54;;;;;;;1.67;1.30;;;9.10;98.20;;;;;;4984382;28;20487;-72
2021/12/24 08:19:21;;;;;;;1.67;1.30;;;9.10;98.20;;;;;;4995252;28;21469;-72
2021/12/24 08:21:48;;;;;;;1.60;1.20;;;9.10;98.20;;;;;;4979589;28;21154;-72
2021/12/24 08:24:16;;;;;;;1.60;1.20;;;9.10;98.20;;;;;;4992332;28;20579;-72
2021/12/24 08:26:45;;;;;;;2.80;1.83;;;9.10;98.20;;;;;;4982388;28;20522;-72
2021/12/24 08:29:12;;;;;;;1.70;1.40;;;9.10;98.20;;;;;;4989859;28;20917;-72
2021/12/24 08:31:40;;;;;;;1.70;1.30;;;9.10;98.20;;;;;;4984109;28;20492;-72
2021/12/24 08:34:08;;;;;;;1.60;1.20;;;9.10;98.20;;;;;;4995780;28;20533;-72
2021/12/24 08:36:36;;;;;;;1.60;1.20;;;9.10;98.20;;;;;;4978695;28;20568;-72
2021/12/24 08:39:03;;;;;;;1.60;1.20;;;9.10;98.20;;;;;;4990200;28;20461;-71
2021/12/24 08:41:30;;;;;;;1.60;1.10;;;9.10;98.20;;;;;;4976993;28;20489;-71
2021/12/24 08:43:59;;;;;;;1.60;1.17;;;9.10;98.20;;;;;;4991343;28;21400;-72
2021/12/24 08:46:27;;;;;;;1.70;1.30;;;9.10;98.20;;;;;;4979563;28;20534;-72
2021/12/24 08:48:54;;;;;;;1.70;1.30;;;9.10;98.20;;;;;;4993969;28;20467;-72
2021/12/24 08:51:21;;;;;;;1.60;1.10;;;9.00;98.20;;;;;;4980607;28;20565;-72
2021/12/24 08:53:48;;;;;;;1.60;1.20;;;9.00;98.20;;;;;;4992151;28;20531;-72
2021/12/24 08:56:16;;;;;;;1.63;1.30;;;9.00;98.20;;;;;;4974671;28;20655;-71
2021/12/24 08:58:43;;;;;;;1.60;1.23;;;9.00;98.20;;;;;;4994350;28;20536;-71
2021/12/24 09:01:12;;;;;;;1.63;1.20;;;9.00;98.20;;;;;;4977769;28;20546;-72
2021/12/24 09:03:42;;;;;;;2.23;2.03;;;9.00;98.20;;;;;;4998812;28;21029;-72
2021/12/24 09:06:09;;;;;;;1.60;1.20;;;9.10;98.20;;;;;;4978975;28;20570;-72
2021/12/24 09:08:42;;;;;;;1.60;1.20;;;9.10;98.20;;;;;;4991908;28;20453;-72
2021/12/24 09:11:09;;;;;;;1.63;1.30;;;9.10;98.20;;;;;;4979638;28;20878;-72
2021/12/24 09:13:36;;;;;;;1.60;1.20;;;9.10;98.20;;;;;;4999399;28;20551;-72
2021/12/24 09:16:03;;;;;;;1.60;1.20;;;9.10;98.20;;;;;;4965071;28;21020;-73
2021/12/24 09:18:32;;;;;;;1.60;1.20;;;9.20;98.20;;;;;;4992611;28;20471;-72
2021/12/24 09:21:02;;;;;;;1.70;1.30;;;9.20;98.20;;;;;;4970104;28;20986;-72
2021/12/24 09:23:30;;;;;;;1.63;1.20;;;9.20;98.20;;;;;;4991404;28;20472;-73
2021/12/24 09:25:57;;;;;;;2.23;1.97;;;9.20;98.20;;;;;;4973569;28;20548;-72
2021/12/24 09:28:24;;;;;;;1.60;1.20;;;9.20;98.20;;;;;;4996460;28;20477;-73
2021/12/24 09:30:51;;;;;;;1.60;1.20;;;9.20;98.20;;;;;;4971185;28;21023;-72
2021/12/24 09:33:18;;;;;;;1.60;1.10;;;9.30;98.20;;;;;;4986918;28;20887;-72
2021/12/24 09:35:47;;;;;;;1.63;1.20;;;9.30;98.20;;;;;;4983820;28;20463;-73
2021/12/24 09:38:14;;;;;;;1.60;1.20;;;9.30;98.20;;;;;;4944295;28;20777;-72
2021/12/24 09:40:41;;;;;;;1.60;1.20;;;9.30;98.20;;;;;;4960665;28;20485;-72
2021/12/24 09:43:08;;;;;;;1.63;1.20;;;9.40;98.20;;;;;;4959113;28;20569;-72
2021/12/24 09:45:36;;;;;;;1.60;1.20;;;9.40;98.20;;;;;;4953371;28;20493;-73
2021/12/24 09:48:03;;;;;;;1.60;1.20;;;9.30;98.20;;;;;;4958941;28;20539;-72
2021/12/24 09:50:30;;;;;;;1.70;1.37;;;9.30;98.20;;;;;;4964127;28;20493;-72
2021/12/24 09:52:59;;;;;;;1.60;1.20;;;9.30;98.20;;;;;;4979572;28;20480;-72
2021/12/24 09:55:29;;;;;;;1.60;1.30;;;9.30;98.20;;;;;;4981314;28;20899;-73
2021/12/24 09:57:56;;;;;;;1.70;1.37;;;9.40;98.20;;;;;;4979085;28;20995;-73
2021/12/24 10:00:25;;;;;;;1.60;1.20;;;9.40;98.20;;;;;;4983662;28;20542;-73
2021/12/24 10:02:54;;;;;;;1.70;1.20;;;9.40;98.20;;;;;;4982049;28;20524;-72
2021/12/24 10:05:31;;;;;;;1.60;1.20;;;9.40;98.20;;;;;;4980986;28;21034;-72
2021/12/24 10:08:31;;;;;;;1.60;1.20;;;9.50;98.20;;;;;;4984500;28;20492;-72
2021/12/24 10:11:15;;;;;;;1.60;1.10;;;9.50;98.20;;;;;;5113124;23;20705;-73
2021/12/24 10:17:10;;;;;;;1.70;1.20;;;9.60;98.20;;;;;;4921340;29;21024;-73
2021/12/24 10:22:27;;;;;;;1.60;1.10;;;9.70;98.20;;;;;;5038878;23;21062;-73
2021/12/24 10:25:07;;;;;;;1.60;1.20;;;9.70;98.20;;;;;;4985847;28;20489;-72
2021/12/24 10:27:35;;;;;;;1.63;1.20;;;9.70;98.20;;;;;;4965782;28;20558;-71
2021/12/24 10:30:16;;;;;;;1.60;1.10;;;9.70;98.20;;;;;;4966885;28;20732;-72
2021/12/24 10:32:43;;;;;;;1.60;1.10;;;9.70;98.20;;;;;;4965131;28;20596;-71
2021/12/24 10:35:21;;;;;;;1.63;1.20;;;9.80;98.20;;;;;;4967100;28;20997;-71
2021/12/24 10:38:08;;;;;;;1.60;1.20;;;9.80;98.20;;;;;;4972730;28;20602;-72
2021/12/24 10:40:37;;;;;;;1.60;1.20;;;9.80;98.20;;;;;;4967153;28;20487;-72
2021/12/24 10:43:04;;;;;;;1.67;1.27;;;9.80;98.20;;;;;;4968586;28;20485;-71
2021/12/24 10:45:33;;;;;;;1.60;1.10;;;9.80;98.20;;;;;;4968744;28;20583;-71
2021/12/24 10:48:19;;;;;;;1.70;1.30;;;9.70;98.20;;;;;;4971564;28;20576;-72
2021/12/24 10:51:05;;;;;;;1.60;1.20;;;9.80;98.20;;;;;;4965477;28;20487;-70
2021/12/24 10:53:36;;;;;;;1.60;1.20;;;9.80;98.20;;;;;;4969081;28;21049;-70
2021/12/24 10:56:06;;;;;;;1.60;1.20;;;9.80;98.20;;;;;;4939231;28;20470;-70
2021/12/24 10:58:34;;;;;;;1.70;1.20;;;9.80;98.20;;;;;;4977969;28;20479;-70
2021/12/24 11:01:04;;;;;;;1.67;1.20;;;9.80;98.20;;;;;;4958651;28;20481;-70
2021/12/24 11:03:33;;;;;;;2.93;2.73;;;9.90;98.20;;;;;;4978270;28;20466;-70
2021/12/24 11:06:07;;;;;;;1.60;1.10;;;9.90;98.20;;;;;;4957052;28;20489;-70
2021/12/24 11:08:34;;;;;;;1.60;1.10;;;9.90;98.20;;;;;;4978690;28;20488;-70
2021/12/24 11:11:06;;;;;;;1.70;1.20;;;10.00;98.20;;;;;;4957784;28;20959;-70
2021/12/24 11:13:39;;;;;;;1.60;1.20;;;10.00;98.20;;;;;;4978422;28;20465;-70
2021/12/24 11:16:07;;;;;;;1.60;1.10;;;10.10;98.20;;;;;;4959197;28;20493;-70
2021/12/24 11:18:38;;;;;;;1.70;1.27;;;10.10;98.20;;;;;;4976063;28;20489;-71
2021/12/24 11:21:07;;;;;;;1.60;1.10;;;10.10;98.20;;;;;;4958278;28;20953;-71
2021/12/24 11:23:37;;;;;;;1.63;1.17;;;10.10;98.20;;;;;;4972917;28;20497;-71
2021/12/24 11:26:08;;;;;;;1.70;1.17;;;10.20;98.20;;;;;;4958450;28;20489;-71
2021/12/24 11:28:36;;;;;;;1.60;1.10;;;10.20;98.20;;;;;;4975802;28;20469;-71
2021/12/24 11:31:06;;;;;;;1.60;1.20;;;10.20;98.20;;;;;;4956222;28;20492;-71
2021/12/24 11:33:35;;;;;;;1.63;1.20;;;10.20;98.20;;;;;;4977619;28;20465;-71
2021/12/24 11:36:06;;;;;;;1.60;1.20;;;10.20;98.20;;;;;;4958507;28;20474;-71
2021/12/24 11:38:36;;;;;;;1.80;1.57;;;10.30;98.20;;;;;;4977751;28;20477;-71
2021/12/24 11:41:07;;;;;;;1.60;1.10;;;10.30;98.20;;;;;;4956222;28;20567;-71
2021/12/24 11:43:36;;;;;;;1.60;1.20;;;10.40;98.20;;;;;;4975339;28;20810;-72
2021/12/24 11:46:06;;;;;;;1.60;1.10;;;10.40;98.20;;;;;;4950464;28;20530;-72
2021/12/24 11:48:35;;;;;;;1.67;1.10;;;10.50;98.20;;;;;;4979754;28;20466;-72
2021/12/24 11:51:05;;;;;;;2.07;1.87;;;10.50;98.20;;;;;;4952380;28;20852;-72
2021/12/24 11:53:33;;;;;;;1.60;1.10;;;10.50;98.20;;;;;;4975319;28;20553;-72
2021/12/24 11:56:04;;;;;;;1.60;1.10;;;10.50;98.20;;;;;;4956243;28;20458;-72
2021/12/24 11:58:33;;;;;;;1.70;1.20;;;10.50;98.20;;;;;;4977725;28;21222;-72
2021/12/24 12:01:06;;;;;;;1.60;1.10;;;10.50;98.20;;;;;;4953021;28;20540;-72
2021/12/24 12:03:36;;;;;;;1.60;1.10;;;10.50;98.20;;;;;;4971696;28;20465;-72
2021/12/24 12:06:05;;;;;;;1.60;1.10;;;10.50;98.20;;;;;;4953058;28;20482;-72
2021/12/24 12:08:40;;;;;;;2.00;1.57;;;10.50;98.20;;;;;;4974268;28;20465;-70
2021/12/24 12:11:20;;;;;;;1.63;1.10;;;10.50;98.20;;;;;;4956988;28;20493;-72
2021/12/24 12:13:55;;;;;;;1.60;1.10;;;10.40;98.20;;;;;;4972561;28;20516;-70
2021/12/24 12:16:24;;;;;;;1.60;1.10;;;10.50;98.20;;;;;;4959826;28;20491;-70
2021/12/24 12:19:10;;;;;;;2.17;1.77;;;10.50;98.20;;;;;;4970683;28;20461;-70
2021/12/24 12:21:40;;;;;;;1.60;1.10;;;10.40;98.20;;;;;;4958774;28;20481;-70
2021/12/24 12:27:02;;;;;;;1.60;1.20;;;10.40;98.20;;;;;;4965967;28;20484;-70
2021/12/24 12:29:44;;;;;;;1.60;1.10;;;10.40;98.20;;;;;;4970587;28;20569;-70
2021/12/24 12:32:43;;;;;;;1.60;1.20;;;10.40;98.20;;;;;;4965072;28;20608;-70
2021/12/24 12:35:11;;;;;;;1.63;1.20;;;10.40;98.20;;;;;;4961960;28;20458;-71
2021/12/24 12:37:57;;;;;;;1.60;1.10;;;10.40;98.20;;;;;;4967500;28;20500;-72
2021/12/24 12:40:35;;;;;;;2.10;1.87;;;10.40;98.20;;;;;;4964287;28;20490;-72
2021/12/24 12:43:09;;;;;;;1.60;1.10;;;10.40;98.20;;;;;;4962098;28;20503;-71
2021/12/24 12:46:08;;;;;;;1.60;1.20;;;10.40;98.20;;;;;;4961368;28;20585;-71
2021/12/24 12:48:50;;;;;;;1.60;1.10;;;10.50;98.20;;;;;;4953096;28;20500;-72
2021/12/24 12:51:22;;;;;;;1.60;1.10;;;10.50;98.20;;;;;;4956411;28;20489;-69
2021/12/24 12:53:51;;;;;;;1.70;1.10;;;10.60;98.20;;;;;;4965614;28;20473;-70
2021/12/24 12:56:27;;;;;;;1.70;1.20;;;10.60;98.20;;;;;;4955874;28;20958;-72
2021/12/24 12:58:59;;;;;;;1.60;1.10;;;10.60;98.20;;;;;;4975816;28;20493;-72
2021/12/24 13:01:28;;;;;;;1.60;1.10;;;10.60;98.20;;;;;;4956190;28;20489;-72
2021/12/24 13:04:14;;;;;;;1.63;1.10;;;10.70;98.20;;;;;;4970020;28;20494;-72
2021/12/24 13:06:54;;;;;;;1.60;1.10;;;10.60;98.20;;;;;;4958422;28;21056;-71
2021/12/24 13:09:29;;;;;;;1.60;1.10;;;10.60;98.20;;;;;;4967998;28;20562;-71
2021/12/24 13:11:57;;;;;;;1.60;1.10;;;10.60;98.20;;;;;;4954625;28;21337;-72
2021/12/24 13:14:26;;;;;;;1.67;1.17;;;10.60;98.20;;;;;;4965313;28;20837;-71
2021/12/24 13:17:16;;;;;;;1.60;1.10;;;10.60;98.20;;;;;;4959265;28;20759;-70
2021/12/24 13:22:37;;;;;;;1.67;1.20;;;10.50;98.20;;;;;;4935147;28;20512;-72
2021/12/24 13:25:10;;;;;;;1.67;1.10;;;10.50;98.20;;;;;;4955647;28;21030;-71
2021/12/24 13:27:41;;;;;;;1.70;1.30;;;10.50;98.20;;;;;;4960166;28;20551;-71
2021/12/24 13:30:11;;;;;;;1.60;1.10;;;10.50;98.20;;;;;;4965895;28;20884;-72
2021/12/24 13:32:41;;;;;;;1.70;1.20;;;10.50;98.20;;;;;;4963667;28;20483;-71
2021/12/24 13:35:09;;;;;;;1.60;1.03;;;10.40;98.20;;;;;;4960674;28;20461;-71
2021/12/24 13:37:36;;;;;;;1.70;1.20;;;10.40;98.20;;;;;;4967032;28;20575;-71
2021/12/24 13:40:09;;;;;;;1.60;1.10;;;10.40;98.20;;;;;;4959994;28;20461;-71
2021/12/24 13:42:43;;;;;;;1.60;1.20;;;10.30;98.20;;;;;;4963636;28;20960;-71
2021/12/24 13:45:10;;;;;;;1.70;1.20;;;10.30;98.20;;;;;;4964921;28;20536;-71
2021/12/24 13:47:52;;;;;;;1.63;1.20;;;10.30;98.20;;;;;;4967380;28;20575;-71
2021/12/24 13:55:57;;;;;;;1.60;1.10;;;10.20;98.20;;;;;;4951901;28;20445;-71
2021/12/24 13:58:24;;;;;;;1.67;1.10;;;10.20;98.20;;;;;;4975302;28;20475;-71
2021/12/24 14:00:53;;;;;;;1.60;1.10;;;10.20;98.20;;;;;;4953714;28;20574;-71
2021/12/24 14:03:26;;;;;;;1.60;1.20;;;10.20;98.20;;;;;;4971371;28;20470;-71
2021/12/24 14:05:58;;;;;;;1.60;1.10;;;10.20;98.20;;;;;;4945270;28;20942;-71
2021/12/24 14:08:26;;;;;;;1.60;1.20;;;10.10;98.20;;;;;;4968115;28;20822;-71
2021/12/24 14:11:05;;;;;;;1.70;1.20;;;10.10;98.20;;;;;;4947521;28;20486;-71
2021/12/24 14:13:37;;;;;;;1.60;1.20;;;10.10;98.20;;;;;;4968785;28;20794;-71
2021/12/24 14:16:12;;;;;;;1.60;1.10;;;10.00;98.20;;;;;;4954741;28;20462;-71
2021/12/24 14:18:50;;;;;;;1.67;1.23;;;10.10;98.20;;;;;;4971371;28;21022;-71
2021/12/24 14:21:49;;;;;;;1.60;1.10;;;10.00;98.20;;;;;;4956102;28;20477;-71
2021/12/24 14:24:19;;;;;;;1.60;1.10;;;10.00;98.20;;;;;;4968029;28;21023;-70
2021/12/24 14:26:48;;;;;;;1.60;1.10;;;10.00;98.20;;;;;;4958582;28;20496;-71
2021/12/24 14:29:29;;;;;;;1.70;1.20;;;10.00;98.20;;;;;;4970092;28;20552;-71
2021/12/24 14:31:58;;;;;;;1.60;1.10;;;9.90;98.20;;;;;;4956795;28;20495;-71
2021/12/24 14:34:37;;;;;;;1.60;1.10;;;9.90;98.20;;;;;;4963878;28;20498;-72
2021/12/24 14:37:09;;;;;;;1.60;1.10;;;9.90;98.20;;;;;;4958239;28;20492;-70
2021/12/24 14:39:43;;;;;;;1.60;1.10;;;9.90;98.20;;;;;;4967264;28;20473;-70
2021/12/24 14:42:19;;;;;;;1.60;1.20;;;9.90;98.20;;;;;;4956026;28;21055;-70